Time;durP1;ratioP1;P1;durP2;ratioP2;P2;SDS_P1;SDS_P2;PMS_P1;PMS_P2;Temp;Humidity;BMP_temperature;BMP_pressure;BME280_temperature;BME280_humidity;BME280_pressure;Samples;Min_cycle;Max_cycle;Signal;HPM_P1;HPM_P2
2024/04/04 00:00:59;;;;;;;5.05;0.80;;;;;;;-144.05;71.06;56980.53;5092987;28;20187;-79
2024/04/04 00:03:28;;;;;;;7.55;1.77;;;;;;;-144.05;71.09;56982.66;5087652;28;20028;-79
2024/04/04 00:05:54;;;;;;;3.33;0.85;;;7.20;99.90;;;-144.05;70.98;56982.66;5070063;28;20028;-78
2024/04/04 00:08:20;;;;;;;4.78;1.65;;;7.80;99.90;;;-144.05;71.15;56999.63;5071779;28;20032;-80
2024/04/04 00:10:46;;;;;;;7.32;1.00;;;7.30;99.90;;;-144.05;71.23;56993.25;5061860;28;20031;-78
2024/04/04 00:13:12;;;;;;;4.72;0.80;;;7.30;99.90;;;-144.05;71.94;56984.78;5073048;28;20035;-79
2024/04/04 00:15:39;;;;;;;6.63;1.10;;;9.70;99.90;;;-144.05;71.91;57001.75;5083546;28;20135;-79
2024/04/04 00:18:05;;;;;;;3.83;1.20;;;14.00;99.90;;;-144.05;72.02;57001.75;5070262;28;20062;-79
2024/04/04 00:20:31;;;;;;;6.57;1.25;;;;;;;-144.05;72.22;56969.91;5068194;28;20067;-80
2024/04/04 00:22:57;;;;;;;10.02;1.20;;;7.20;99.90;;;-144.05;72.13;56993.25;5090442;28;20032;-79
2024/04/04 00:25:24;;;;;;;5.20;0.98;;;;;;;-144.05;72.57;57003.88;5082547;28;20024;-79
2024/04/04 00:27:49;;;;;;;4.95;1.40;;;7.60;99.90;;;-144.05;73.12;57006.00;5090725;28;20107;-80
2024/04/04 00:30:17;;;;;;;8.77;1.02;;;;;;;-144.05;72.58;56993.25;5091291;28;20030;-81
2024/04/04 00:32:44;;;;;;;9.30;0.95;;;;;;;-144.05;72.46;56997.50;5073572;28;20096;-80
2024/04/04 00:35:09;;;;;;;6.28;1.42;;;7.50;99.90;;;-144.05;72.16;57018.75;5073654;28;20073;-81
2024/04/04 00:37:35;;;;;;;4.15;0.95;;;8.00;99.90;;;-144.05;71.79;57006.00;5091017;28;20563;-80
2024/04/04 00:40:03;;;;;;;5.35;1.20;;;7.60;99.90;;;-144.05;72.53;56993.25;5072292;28;20035;-80
2024/04/04 00:42:29;;;;;;;6.05;1.67;;;8.10;99.90;;;-144.05;72.88;57010.25;5085416;28;20032;-79
2024/04/04 00:44:55;;;;;;;6.80;1.27;;;7.10;99.90;;;-144.05;73.01;56991.13;5088034;28;20039;-80
2024/04/04 00:47:21;;;;;;;6.55;1.08;;;7.50;99.90;;;-144.05;72.27;57001.75;5091125;28;20082;-77
2024/04/04 00:49:48;;;;;;;4.97;1.08;;;;;;;-144.05;72.53;57012.38;5072115;28;20028;-79
2024/04/04 00:52:15;;;;;;;3.78;1.23;;;8.00;99.90;;;-144.05;71.94;56986.91;5087034;28;20586;-79
2024/04/04 00:54:43;;;;;;;7.18;1.10;;;8.20;99.90;;;-144.05;72.09;56993.25;5069424;28;20046;-79
2024/04/04 00:57:09;;;;;;;7.72;1.83;;;9.70;99.90;;;-144.05;72.49;56993.25;5089773;28;20094;-78
2024/04/04 00:59:39;;;;;;;5.95;1.63;;;7.10;99.90;;;-144.05;72.24;56993.25;5072111;28;20028;-78
2024/04/04 01:02:05;;;;;;;5.25;1.42;;;;;;;-144.05;72.09;56967.78;5071377;28;20028;-77
2024/04/04 01:04:31;;;;;;;5.47;1.20;;;8.00;99.90;;;-144.05;71.70;56978.41;5090010;28;20474;-79
2024/04/04 01:06:58;;;;;;;4.03;0.90;;;7.40;99.90;;;-144.05;72.02;56969.91;5071199;28;20081;-79
2024/04/04 01:09:24;;;;;;;4.63;1.23;;;7.20;99.90;;;-144.05;72.67;57006.00;5071852;28;20569;-78
2024/04/04 01:11:50;;;;;;;7.80;1.40;;;7.30;99.90;;;-144.05;72.63;56969.91;5089305;28;20103;-78
2024/04/04 01:14:16;;;;;;;8.10;1.50;;;7.20;99.90;;;-144.05;73.20;56986.91;5071517;28;20055;-80
2024/04/04 01:16:41;;;;;;;7.43;1.67;;;7.90;99.90;;;-144.05;73.45;56991.13;5090180;28;20028;-79
2024/04/04 01:19:07;;;;;;;7.38;1.45;;;7.40;99.90;;;-144.05;73.67;56986.91;5068523;28;20537;-79
2024/04/04 01:21:33;;;;;;;3.72;1.30;;;;;;;-144.05;72.93;56989.00;5084434;28;20059;-79
2024/04/04 01:24:00;;;;;;;6.43;1.10;;;;;;;-144.05;72.71;56989.00;5069919;28;20618;-78
2024/04/04 01:26:27;;;;;;;6.35;1.70;;;7.40;99.90;;;-144.05;73.00;56993.25;5060746;28;20035;-77
2024/04/04 01:28:53;;;;;;;6.25;1.55;;;7.40;99.90;;;-144.05;72.93;57018.75;5078715;28;20023;-77
2024/04/04 01:31:19;;;;;;;8.18;1.15;;;7.70;99.90;;;-144.05;72.95;57001.75;5091657;28;20520;-79
2024/04/04 01:33:45;;;;;;;8.85;1.45;;;7.70;99.90;;;-144.05;73.31;56984.78;5091435;28;20027;-81
2024/04/04 01:36:11;;;;;;;7.57;1.30;;;;;;;-144.05;72.78;56980.53;5102188;28;20071;-79
2024/04/04 01:38:37;;;;;;;8.18;1.20;;;7.50;99.90;;;-144.05;72.71;56997.50;5078226;28;20036;-79
2024/04/04 01:41:03;;;;;;;4.50;1.15;;;7.20;99.90;;;-144.05;72.93;56989.00;5078365;28;20450;-80
2024/04/04 01:43:28;;;;;;;5.22;1.30;;;7.70;99.90;;;-144.05;73.01;56986.91;5091977;28;20108;-80
2024/04/04 01:45:54;;;;;;;6.88;1.13;;;7.80;99.90;;;-144.05;72.73;56969.91;5093051;28;20031;-78
2024/04/04 01:48:20;;;;;;;4.80;1.00;;;7.30;99.90;;;-144.05;72.58;56997.50;5096019;28;20503;-77
2024/04/04 01:50:46;;;;;;;7.65;0.98;;;;;;;-144.05;72.96;57008.13;5096024;28;20039;-77
2024/04/04 01:53:12;;;;;;;2.80;1.00;;;;;;;-144.05;72.37;56997.50;5086720;28;20401;-77
2024/04/04 01:55:38;;;;;;;6.47;1.13;;;8.00;99.90;;;-144.05;72.21;57006.00;5095773;28;20028;-80
2024/04/04 01:58:04;;;;;;;5.28;1.10;;;;;;;-144.05;72.22;56989.00;5076338;28;20024;-78
2024/04/04 02:00:30;;;;;;;6.90;1.23;;;7.60;99.90;;;-144.05;72.43;56976.28;5095633;28;20031;-79
2024/04/04 02:02:57;;;;;;;7.63;1.45;;;;;;;-144.05;72.42;56991.13;5076734;28;20032;-78
2024/04/04 02:05:24;;;;;;;3.25;0.85;;;;;;;-144.05;72.72;56980.53;5077447;28;20028;-79
2024/04/04 02:07:49;;;;;;;4.90;0.82;;;8.20;99.90;;;-144.05;72.11;57001.75;5095081;28;20024;-80
2024/04/04 02:10:15;;;;;;;5.90;1.45;;;7.90;99.90;;;-144.05;72.51;56965.66;5087524;28;20400;-78
2024/04/04 02:12:41;;;;;;;6.82;1.20;;;;;;;-144.05;72.35;57014.50;5077165;28;20024;-80
2024/04/04 02:15:10;;;;;;;5.72;1.48;;;14.10;99.90;;;-144.05;72.41;56989.00;5075959;28;20385;-78
2024/04/04 02:17:36;;;;;;;6.82;1.00;;;7.20;99.90;;;-144.05;73.13;56974.16;5095623;28;20024;-79
2024/04/04 02:20:09;;;;;;;3.75;0.70;;;7.50;99.90;;;-144.05;72.60;56991.13;5094033;28;20035;-79
2024/04/04 02:22:37;;;;;;;6.30;1.40;;;8.10;99.90;;;-144.05;73.14;56980.53;5095550;28;20028;-78
2024/04/04 02:25:05;;;;;;;4.38;1.05;;;14.10;99.90;;;-144.05;72.48;56978.41;5087819;28;20024;-77
2024/04/04 02:27:33;;;;;;;5.05;1.15;;;7.80;99.90;;;-144.05;73.04;56997.50;5095465;28;20023;-78
2024/04/04 02:30:03;;;;;;;6.95;1.10;;;9.90;99.90;;;-144.05;72.44;56984.78;5075862;28;20024;-79
2024/04/04 02:32:30;;;;;;;2.83;0.95;;;7.70;99.90;;;-144.05;71.83;56984.78;5078959;28;20042;-79
2024/04/04 02:34:56;;;;;;;5.63;0.85;;;;;;;-144.05;71.84;56980.53;5096097;28;20031;-80
2024/04/04 02:37:22;;;;;;;4.70;1.00;;;;;;;-144.05;71.55;57012.38;5073118;28;20045;-79
2024/04/04 02:39:49;;;;;;;6.00;1.60;;;;;;;-144.05;72.02;56976.28;5096356;22;20045;-88
2024/04/04 02:42:15;;;;;;;9.07;1.00;;;;;;;-144.05;72.19;56959.28;5042007;28;20029;-87
2024/04/04 02:44:41;;;;;;;3.28;0.70;;;;;;;-144.05;72.10;56995.38;5033500;28;20143;-86
2024/04/04 02:47:07;;;;;;;7.22;1.10;;;;;;;-144.05;71.85;56993.25;5035105;28;20029;-86
2024/04/04 02:49:33;;;;;;;6.22;1.50;;;;;;;-144.05;71.58;56972.03;5033040;28;20025;-84
2024/04/04 02:52:00;;;;;;;4.35;1.05;;;;;;;-144.05;70.95;56986.91;5028382;28;20030;-85
2024/04/04 02:54:26;;;;;;;3.00;0.70;;;;;;;-144.05;71.48;56989.00;5026629;28;20034;-86
2024/04/04 02:56:52;;;;;;;3.80;1.42;;;;;;;-144.05;71.40;56976.28;5025745;28;20033;-86
2024/04/04 02:59:18;;;;;;;5.35;0.98;;;;;;;-144.05;71.11;56982.66;5025724;28;20041;-84
2024/04/04 03:01:44;;;;;;;5.38;1.55;;;7.80;99.90;;;-144.05;71.59;56963.53;5026093;28;20029;-85
2024/04/04 03:04:10;;;;;;;1.90;0.70;;;;;;;-144.05;71.07;56976.28;5026326;28;20511;-85
2024/04/04 03:06:37;;;;;;;3.15;0.85;;;;;;;-144.05;71.09;56984.78;5022235;28;20123;-86
2024/04/04 03:09:07;;;;;;;4.82;1.00;;;;;;;-144.05;71.06;56972.03;5033867;28;20029;-87
2024/04/04 03:11:35;;;;;;;2.90;0.77;;;10.60;99.90;;;-144.05;70.78;56984.78;5036168;28;20025;-85
2024/04/04 03:14:01;;;;;;;6.03;0.63;;;;;;;-144.05;71.49;56997.50;5035102;28;20072;-84
2024/04/04 03:16:27;;;;;;;5.90;0.90;;;;;;;-144.05;71.61;56986.91;5035676;28;20057;-86
2024/04/04 03:18:53;;;;;;;3.22;0.85;;;;;;;-144.05;71.74;57008.13;5043406;28;20034;-87
2024/04/04 03:21:19;;;;;;;3.88;0.90;;;;;;;-144.05;71.94;56997.50;5029095;28;20029;-87
2024/04/04 03:23:46;;;;;;;3.80;0.80;;;;;;;-144.05;72.16;56978.41;5028758;28;20347;-86
2024/04/04 03:26:12;;;;;;;1.60;0.70;;;;;;;-144.05;72.31;57006.00;5030066;28;20041;-87
2024/04/04 03:28:38;;;;;;;4.43;0.82;;;;;;;-144.05;73.27;56984.78;5049915;28;20029;-87
2024/04/04 03:31:04;;;;;;;5.47;0.80;;;;;;;-144.05;72.90;56986.91;5041289;28;20070;-86
2024/04/04 03:33:31;;;;;;;3.38;1.35;;;;;;;-144.05;74.11;56984.78;5034837;28;20041;-88
2024/04/04 03:35:57;;;;;;;6.32;0.85;;;8.10;99.90;;;-144.05;74.13;56974.16;5041442;28;20021;-88
2024/04/04 03:38:23;;;;;;;3.63;0.80;;;;;;;-144.05;74.79;56965.66;5044700;28;20044;-86
2024/04/04 03:40:55;;;;;;;2.88;1.02;;;8.50;99.90;;;-144.05;75.21;56972.03;5028926;28;20037;-85
2024/04/04 03:43:23;;;;;;;5.80;0.90;;;10.60;99.90;;;-144.05;75.17;56982.66;5029732;28;20052;-87
2024/04/04 03:45:49;;;;;;;3.40;0.90;;;;;;;-144.05;75.25;56991.13;5038032;28;20036;-85
2024/04/04 03:48:19;;;;;;;4.07;0.98;;;10.60;99.90;;;-144.05;75.84;56993.25;5033468;28;20078;-86
2024/04/04 03:50:47;;;;;;;3.78;1.20;;;;;;;-144.05;76.73;56976.28;5025309;28;20116;-86
2024/04/04 03:53:14;;;;;;;3.60;1.55;;;;;;;-144.05;77.35;56959.28;5032756;28;20022;-85
2024/04/04 03:55:43;;;;;;;2.50;1.20;;;;;;;-144.05;78.11;56984.78;5033199;28;20064;-86
2024/04/04 03:58:10;;;;;;;3.80;1.05;;;10.40;99.90;;;-144.05;79.10;56974.16;5024780;28;20112;-86
2024/04/04 04:00:36;;;;;;;3.63;0.95;;;;;;;-144.05;80.29;56959.28;5036221;28;20392;-85
2024/04/04 04:03:03;;;;;;;3.25;1.05;;;;;;;-144.05;81.17;56972.03;5032523;28;20039;-86
2024/04/04 04:05:29;;;;;;;3.38;0.77;;;;;;;-144.05;83.22;56965.66;5032357;28;20512;-85
2024/04/04 04:07:56;;;;;;;7.05;1.27;;;;;;;-144.05;84.09;56976.28;5032019;28;20108;-85
2024/04/04 04:10:27;;;;;;;3.65;1.10;;;;;;;-144.05;84.61;56984.78;5028494;28;20520;-85
2024/04/04 04:12:54;;;;;;;3.67;1.00;;;;;;;-144.05;85.07;56991.13;5017335;28;20034;-85
2024/04/04 04:15:22;;;;;;;3.25;1.00;;;;;;;-144.05;84.66;56978.41;5032314;28;20025;-86
2024/04/04 04:17:48;;;;;;;2.75;1.10;;;;;;;-144.05;86.73;56963.53;5033890;28;20116;-83
2024/04/04 04:22:59;;;;;;;4.18;1.00;;;;;;;-144.05;88.10;56995.38;5035075;28;20099;-84
2024/04/04 04:25:26;;;;;;;3.42;1.13;;;;;;;-144.05;88.48;57003.88;5024578;28;20046;-83
2024/04/04 04:27:53;;;;;;;4.25;1.55;;;7.50;99.90;;;-144.05;89.05;56989.00;5021949;28;20034;-82
2024/04/04 04:30:19;;;;;;;2.58;1.10;;;;;;;-144.05;89.09;56980.53;5047938;28;20061;-83
2024/04/04 04:32:45;;;;;;;4.47;1.25;;;7.80;99.90;;;-144.05;89.66;56963.53;5029244;28;20113;-86
2024/04/04 04:35:12;;;;;;;7.22;1.50;;;;;;;-144.05;90.64;56976.28;5027448;28;20026;-86
2024/04/04 04:37:37;;;;;;;2.28;1.63;;;8.10;99.90;;;-144.05;90.20;56976.28;5031998;28;20036;-86
2024/04/04 04:40:05;;;;;;;3.72;1.13;;;8.60;99.90;;;-144.05;90.95;56980.53;5031735;28;20124;-86
2024/04/04 04:42:31;;;;;;;7.65;1.50;;;;;;;-144.05;91.09;56991.13;5031510;28;20029;-85
2024/04/04 04:44:57;;;;;;;5.57;1.52;;;8.30;99.90;;;-144.05;91.48;56974.16;5023748;28;20037;-88
2024/04/04 04:47:23;;;;;;;4.75;1.52;;;;;;;-144.05;91.83;56972.03;5044593;28;20333;-82
2024/04/04 04:49:52;;;;;;;3.80;1.45;;;;;;;-144.05;91.18;56982.66;5058978;28;20029;-81
2024/04/04 04:52:19;;;;;;;3.55;1.52;;;;;;;-144.05;92.24;56969.91;5069239;28;20088;-82
2024/04/04 04:54:45;;;;;;;3.25;1.08;;;7.10;99.90;;;-144.05;91.32;56978.41;5047891;28;20034;-83
2024/04/04 04:57:11;;;;;;;7.22;1.70;;;;;;;-144.05;91.41;56984.78;5069117;28;20029;-83
2024/04/04 04:59:37;;;;;;;6.75;1.85;;;;;;;-144.05;91.27;56959.28;5026113;28;20053;-85
2024/04/04 05:02:04;;;;;;;3.03;1.38;;;;;;;-144.05;91.53;56969.91;5013876;28;20098;-84
2024/04/04 05:04:30;;;;;;;3.83;1.52;;;14.10;99.90;;;-144.05;91.70;56965.66;5012846;28;20045;-87
2024/04/04 05:06:55;;;;;;;4.82;1.80;;;7.60;99.90;;;-144.05;91.76;57012.38;5025761;28;20387;-85
2024/04/04 05:09:22;;;;;;;5.03;1.80;;;;;;;-144.05;90.89;56974.16;5032435;28;20022;-83
2024/04/04 05:11:48;;;;;;;3.35;1.65;;;;;;;-144.05;90.52;56986.91;5021041;28;20030;-86
2024/04/04 05:14:14;;;;;;;2.45;1.70;;;;;;;-144.05;91.18;56959.28;5046985;28;20491;-86
2024/04/04 05:16:44;;;;;;;3.22;1.40;;;;;;;-144.05;91.16;56982.66;5018741;28;20542;-87
2024/04/04 05:19:11;;;;;;;3.42;1.40;;;;;;;-144.05;91.42;56984.78;5027717;28;20025;-87
2024/04/04 05:21:37;;;;;;;4.55;1.60;;;;;;;-144.05;91.02;56963.53;5029116;28;20175;-83
2024/04/04 05:24:04;;;;;;;3.80;1.88;;;;;;;-144.05;91.12;56967.78;5023364;28;20040;-85
2024/04/04 05:26:30;;;;;;;3.63;1.30;;;;;;;-144.05;90.98;56976.28;5046023;28;20437;-86
2024/04/04 05:28:57;;;;;;;2.67;1.38;;;;;;;-144.05;90.94;56978.41;5025355;28;20426;-85
2024/04/04 05:31:23;;;;;;;3.53;1.50;;;8.30;99.90;;;-144.05;90.84;56991.13;5019398;28;20583;-84
2024/04/04 05:33:50;;;;;;;3.15;1.33;;;;;;;-144.05;91.68;56967.78;5024925;28;20061;-85
2024/04/04 05:36:16;;;;;;;3.08;1.20;;;;;;;-144.05;91.04;56967.78;5031622;28;20120;-87
2024/04/04 05:38:42;;;;;;;2.92;1.88;;;;;;;-144.05;90.44;56969.91;5024799;28;20026;-85
2024/04/04 05:41:09;;;;;;;2.50;0.90;;;10.70;99.90;;;-144.05;90.60;56993.25;5026990;28;20033;-85
2024/04/04 05:43:36;;;;;;;2.20;1.27;;;13.40;99.90;;;-144.05;90.71;56967.78;5039242;28;20034;-85
2024/04/04 05:46:03;;;;;;;5.10;1.50;;;10.80;99.90;;;-144.05;90.46;56976.28;5024765;28;20052;-85
2024/04/04 05:48:29;;;;;;;4.18;1.20;;;;;;;-144.05;90.45;56963.53;5044769;28;20026;-85
2024/04/04 05:51:03;;;;;;;5.30;1.45;;;10.90;99.90;;;-144.05;90.64;56980.53;5019027;28;20033;-85
2024/04/04 05:53:32;;;;;;;4.32;1.38;;;;;;;-144.05;90.97;56993.25;5030492;28;20045;-85
2024/04/04 05:55:59;;;;;;;2.38;1.00;;;;;;;-144.05;90.42;56976.28;5032095;28;20025;-87
2024/04/04 05:58:25;;;;;;;1.33;0.88;;;;;;;-144.05;90.68;56980.53;5032774;28;20609;-82
2024/04/04 06:00:51;;;;;;;4.35;1.15;;;;;;;-144.05;90.45;56965.66;5033135;28;20037;-87
2024/04/04 06:03:18;;;;;;;3.97;0.95;;;;;;;-144.05;90.58;56959.28;5033522;28;20083;-84
2024/04/04 06:05:44;;;;;;;2.63;1.20;;;;;;;-144.05;90.70;56959.28;5051269;28;20052;-86
2024/04/04 06:08:10;;;;;;;3.33;0.95;;;;;;;-144.05;90.83;56940.16;5035817;28;20087;-87
2024/04/04 06:10:37;;;;;;;3.13;0.77;;;;;;;-144.05;90.79;56989.00;5036810;28;20021;-85
2024/04/04 06:13:04;;;;;;;2.70;0.85;;;;;;;-144.05;90.93;56993.25;5038176;28;20064;-89
2024/04/04 06:15:30;;;;;;;3.83;1.05;;;;;;;-144.05;91.40;56980.53;5049873;28;20041;-86
2024/04/04 06:17:57;;;;;;;2.38;0.73;;;;;;;-144.05;91.55;56972.03;5052575;28;20097;-88
2024/04/04 06:20:23;;;;;;;5.53;1.08;;;;;;;-144.05;91.88;56965.66;5038824;28;20041;-89
2024/04/04 06:22:50;;;;;;;3.90;0.90;;;;;;;-144.05;92.63;56978.41;5043194;28;20026;-85
2024/04/04 06:25:17;;;;;;;2.75;0.75;;;;;;;-144.05;92.52;56986.91;5031818;28;20063;-84
2024/04/04 06:27:44;;;;;;;4.35;0.73;;;;;;;-144.05;92.80;56967.78;5028446;28;20056;-88
2024/04/04 06:30:10;;;;;;;1.35;0.60;;;;;;;-144.05;93.04;56961.41;5034381;28;20118;-87
2024/04/04 06:32:36;;;;;;;2.72;0.98;;;;;;;-144.05;92.94;56965.66;5020726;28;20084;-86
2024/04/04 06:35:03;;;;;;;2.65;0.80;;;;;;;-144.05;93.49;56969.91;5026958;28;20080;-85
2024/04/04 06:37:31;;;;;;;3.38;1.02;;;;;;;-144.05;93.85;56982.66;5035874;28;20037;-86
2024/04/04 06:39:58;;;;;;;3.15;0.82;;;;;;;-144.05;93.86;56984.78;5035325;28;20034;-86
2024/04/04 06:42:27;;;;;;;3.67;1.00;;;;;;;-144.05;93.76;56933.78;5034961;28;20089;-88
2024/04/04 06:44:53;;;;;;;5.40;1.25;;;;;;;-144.05;93.30;56961.41;5029234;28;20143;-86
2024/04/04 06:47:19;;;;;;;7.15;1.02;;;;;;;-144.05;93.07;56965.66;5031050;28;20502;-85
2024/04/04 06:49:45;;;;;;;5.18;0.90;;;;;;;-144.05;93.12;56963.53;5029920;28;20186;-85
2024/04/04 06:52:11;;;;;;;3.00;1.27;;;;;;;-144.05;94.03;56984.78;5032581;28;20394;-86
2024/04/04 06:54:38;;;;;;;1.67;0.90;;;;;;;-144.05;93.75;56976.28;5032858;28;20049;-87
2024/04/04 06:57:04;;;;;;;2.60;0.95;;;14.10;99.90;;;-144.05;93.91;56959.28;5031594;28;20372;-84
2024/04/04 06:59:30;;;;;;;2.80;1.00;;;;;;;-144.05;93.73;56959.28;5027488;28;20033;-86
2024/04/04 07:01:56;;;;;;;2.70;0.80;;;;;;;-144.05;93.31;56952.91;5037655;28;20037;-84
2024/04/04 07:04:23;;;;;;;1.42;0.80;;;;;;;-144.05;93.03;56957.16;5035690;28;20037;-85
2024/04/04 07:06:49;;;;;;;3.63;0.90;;;;;;;-144.05;92.86;56944.41;5034458;28;20032;-86
2024/04/04 07:09:15;;;;;;;2.63;0.70;;;;;;;-144.05;93.14;56978.41;5033175;28;20497;-84
2024/04/04 07:11:41;;;;;;;2.90;0.90;;;8.70;99.90;;;-144.05;93.23;56950.78;5029691;28;20033;-85
2024/04/04 07:14:07;;;;;;;4.03;0.85;;;;;;;-144.05;93.42;56955.03;5034521;28;20057;-88
2024/04/04 07:16:34;;;;;;;3.47;1.10;;;;;;;-144.05;92.92;56959.28;5034783;28;20026;-85
2024/04/04 07:19:01;;;;;;;3.63;0.80;;;;;;;-144.05;93.22;56959.28;5029797;28;20112;-84
2024/04/04 07:21:27;;;;;;;3.88;0.90;;;;;;;-144.05;92.92;56961.41;5037034;28;20394;-86
2024/04/04 07:23:53;;;;;;;1.90;0.70;;;;;;;-144.05;93.68;56980.53;5037759;28;20060;-85
2024/04/04 07:26:21;;;;;;;2.20;0.60;;;;;;;-144.05;93.60;56972.03;5034649;28;20073;-85
2024/04/04 07:28:47;;;;;;;1.92;0.80;;;;;;;-144.05;93.95;56950.78;5032782;28;20446;-86
2024/04/04 07:31:14;;;;;;;3.97;0.95;;;;;;;-144.05;93.61;56969.91;5033819;28;20025;-87
2024/04/04 07:33:40;;;;;;;1.35;0.50;;;;;;;-144.05;93.24;56974.16;5038615;28;20075;-86
2024/04/04 07:36:07;;;;;;;3.25;1.13;;;;;;;-144.05;93.60;56982.66;5035035;28;20017;-84
2024/04/04 07:38:33;;;;;;;1.23;0.65;;;;;;;-144.05;92.79;56969.91;5037606;28;20055;-85
2024/04/04 07:41:05;;;;;;;3.00;0.70;;;9.10;99.90;;;-144.05;92.96;56974.16;5036963;28;20036;-83
2024/04/04 07:43:32;;;;;;;2.45;0.68;;;;;;;-144.05;92.78;56931.66;5037423;28;20037;-86
2024/04/04 07:46:01;;;;;;;1.60;0.60;;;14.00;99.90;;;-144.05;93.00;56935.91;5029241;28;20103;-87
2024/04/04 07:48:27;;;;;;;3.05;1.02;;;;;;;-144.05;92.86;56965.66;5037607;28;20542;-84
2024/04/04 07:50:54;;;;;;;1.30;0.38;;;;;;;-144.05;93.15;56963.53;5024794;28;20022;-85
2024/04/04 07:53:20;;;;;;;3.38;0.68;;;;;;;-144.05;92.89;56974.16;5026240;28;20049;-85
2024/04/04 07:55:46;;;;;;;1.77;0.52;;;;;;;-144.05;93.08;56959.28;5038289;28;20499;-84
2024/04/04 07:58:12;;;;;;;3.22;0.55;;;;;;;-144.05;92.97;56965.66;5036677;28;20034;-86
2024/04/04 08:00:40;;;;;;;1.70;0.65;;;;;;;-144.05;93.40;56974.16;5037093;28;20034;-85
2024/04/04 08:03:06;;;;;;;2.25;0.70;;;10.30;99.90;;;-144.05;93.44;56963.53;5034471;28;20112;-85
2024/04/04 08:05:32;;;;;;;0.88;0.50;;;;;;;-144.05;93.42;56986.91;5026028;28;20096;-85
2024/04/04 08:07:58;;;;;;;2.58;0.50;;;;;;;-144.05;93.70;56944.41;5028098;28;20017;-84
2024/04/04 08:10:26;;;;;;;3.58;1.02;;;;;;;-144.05;94.05;56972.03;5052827;28;20053;-81
2024/04/04 08:12:52;;;;;;;2.22;0.93;;;;;;;-144.05;94.87;56967.78;5062176;28;20038;-81
2024/04/04 08:15:18;;;;;;;0.63;0.30;;;;;;;-144.05;94.44;56955.03;5022930;28;20038;-85
2024/04/04 08:17:47;;;;;;;0.55;0.40;;;11.90;99.90;;;-144.05;93.75;57003.88;5030291;28;20029;-86
2024/04/04 08:20:14;;;;;;;1.35;0.32;;;;;;;-144.05;93.47;56961.41;5026096;28;20448;-86
2024/04/04 08:22:42;;;;;;;0.80;0.50;;;;;;;-144.05;93.97;56974.16;5034673;28;20057;-86
2024/04/04 08:25:08;;;;;;;1.70;0.50;;;;;;;-144.05;93.65;56969.91;5034398;28;20029;-88
2024/04/04 08:27:35;;;;;;;1.15;0.40;;;;;;;-144.05;93.39;56959.28;5026633;28;20090;-87
2024/04/04 08:30:01;;;;;;;2.58;0.47;;;8.80;99.90;;;-144.05;93.74;56952.91;5034798;28;20405;-83
2024/04/04 08:32:28;;;;;;;2.25;0.55;;;;;;;-144.05;93.68;56946.53;5033881;28;20037;-83
2024/04/04 08:34:54;;;;;;;0.88;0.50;;;;;;;-144.05;93.56;56965.66;5028875;28;20049;-86
2024/04/04 08:37:20;;;;;;;1.83;0.40;;;14.50;99.90;;;-144.05;93.59;56969.91;5033124;28;20056;-90
2024/04/04 08:39:46;;;;;;;1.58;0.50;;;;;;;-144.05;94.18;56963.53;5034434;28;20034;-86
2024/04/04 08:42:12;;;;;;;2.50;0.90;;;;;;;-144.05;93.86;56972.03;5039650;28;20061;-87
2024/04/04 08:44:41;;;;;;;5.00;0.82;;;12.00;99.90;;;-144.05;93.67;56976.28;5025191;28;20033;-86
2024/04/04 08:47:12;;;;;;;2.92;0.75;;;12.10;99.90;;;-144.05;93.81;56963.53;5033749;28;20029;-86
2024/04/04 08:49:40;;;;;;;2.10;1.00;;;12.00;99.90;;;-144.05;94.46;56965.66;5033399;28;20047;-87
2024/04/04 08:52:07;;;;;;;3.22;0.70;;;;;;;-144.05;94.16;56963.53;5033131;28;20033;-86
2024/04/04 08:54:35;;;;;;;0.93;0.73;;;11.90;99.90;;;-144.05;93.67;56957.16;5031706;28;20534;-87
2024/04/04 08:57:02;;;;;;;1.17;0.43;;;11.80;99.90;;;-144.05;93.57;56957.16;5043441;28;20026;-85
2024/04/04 08:59:28;;;;;;;1.35;0.50;;;;;;;-144.05;93.32;56965.66;5031988;28;20552;-86
2024/04/04 09:01:54;;;;;;;1.55;0.60;;;;;;;-144.05;93.62;56972.03;5033885;28;20117;-87
2024/04/04 09:04:30;;;;;;;2.42;1.15;;;9.10;99.90;;;-144.05;92.78;56974.16;5026711;28;20068;-86
2024/04/04 09:06:57;;;;;;;1.02;0.60;;;;;;;-144.05;93.20;56961.41;5034975;28;20059;-85
2024/04/04 09:09:24;;;;;;;2.50;0.63;;;;;;;-144.05;93.21;56955.03;5025664;28;20092;-86
2024/04/04 09:11:52;;;;;;;2.83;0.50;;;14.60;99.90;;;-144.05;92.60;56961.41;5026995;28;20026;-87
2024/04/04 09:14:18;;;;;;;3.17;0.50;;;;;;;-144.05;92.33;56969.91;5034635;28;20100;-86
2024/04/04 09:16:46;;;;;;;1.33;0.60;;;11.90;99.90;;;-144.05;92.71;56974.16;5035462;28;20032;-85
2024/04/04 09:19:19;;;;;;;1.63;0.52;;;12.00;99.90;;;-144.05;92.35;56976.28;5028606;28;20026;-86
2024/04/04 09:21:46;;;;;;;3.17;0.55;;;;;;;-144.05;91.94;56957.16;5027943;28;20036;-87
2024/04/04 09:24:15;;;;;;;0.68;0.30;;;12.20;99.90;;;-144.05;92.00;56967.78;5035149;28;20417;-86
2024/04/04 09:26:44;;;;;;;1.10;0.60;;;12.20;99.90;;;-144.05;91.63;56944.41;5026303;28;20036;-89
2024/04/04 09:29:11;;;;;;;2.70;0.50;;;9.20;99.90;;;-144.05;91.44;56980.53;5033629;28;20090;-87
2024/04/04 09:31:41;;;;;;;2.45;0.68;;;12.60;99.90;;;-144.05;91.69;56957.16;5031218;28;20036;-87
2024/04/04 09:34:10;;;;;;;1.85;0.55;;;;;;;-144.05;90.18;56957.16;5029512;28;20493;-89
2024/04/04 09:36:39;;;;;;;2.17;0.50;;;;;;;-144.05;89.83;56933.78;5030676;28;20041;-88
2024/04/04 09:39:12;;;;;;;0.65;0.40;;;12.90;99.90;;;-144.05;88.38;56978.41;5048754;28;20057;-87
2024/04/04 09:41:39;;;;;;;2.42;0.55;;;;;;;-144.05;87.92;56963.53;5055140;28;20091;-86
2024/04/04 09:44:06;;;;;;;1.27;0.25;;;;;;;-144.05;87.00;56955.03;5050515;28;20144;-88
2024/04/04 09:46:40;;;;;;;1.92;0.50;;;13.00;99.90;;;-144.05;86.76;56952.91;5032000;28;20048;-85
2024/04/04 09:49:08;;;;;;;3.20;0.45;;;;;;;-144.05;85.72;56965.66;5015253;28;20109;-87
2024/04/04 09:51:38;;;;;;;1.67;0.60;;;13.40;99.90;;;-144.05;85.92;56946.53;5019808;28;20187;-89
2024/04/04 09:54:05;;;;;;;1.50;0.40;;;;;;;-144.05;83.71;56955.03;5027137;28;20022;-89
2024/04/04 09:56:33;;;;;;;1.17;0.28;;;;;;;-144.05;83.96;56959.28;5042904;28;20113;-89
2024/04/04 09:59:00;;;;;;;0.80;0.20;;;;;;;-144.05;84.92;56950.78;5037347;28;20064;-88
2024/04/04 10:01:27;;;;;;;1.52;0.35;;;;;;;-144.05;86.23;56952.91;5039265;28;20052;-88
2024/04/04 10:03:53;;;;;;;0.50;0.28;;;;;;;-144.05;86.90;56972.03;5048313;28;20029;-88
2024/04/04 10:06:32;;;;;;;4.40;0.50;;;;;;;-144.05;87.07;56942.28;5041696;28;20035;-81
2024/04/04 10:08:58;;;;;;;1.38;0.40;;;;;;;-144.05;85.11;56952.91;5048970;28;20062;-89
2024/04/04 10:11:33;;;;;;;2.13;0.25;;;14.40;99.90;;;-144.05;85.50;56957.16;5037373;28;20482;-85
2024/04/04 10:14:03;;;;;;;1.05;0.60;;;;;;;-144.05;85.16;56946.53;5037601;28;20503;-86
2024/04/04 10:16:36;;;;;;;0.32;0.30;;;;;;;-144.05;82.39;56969.91;5028522;28;20034;-88
2024/04/04 10:19:18;;;;;;;0.82;0.60;;;13.80;99.90;;;-144.05;82.16;56946.53;5046105;28;20041;-88
2024/04/04 10:21:48;;;;;;;0.47;0.30;;;11.00;99.90;;;-144.05;80.27;56967.78;5031117;28;20112;-87
2024/04/04 10:24:31;;;;;;;1.02;0.40;;;15.20;99.90;;;-144.05;80.87;56963.53;5051360;28;20033;-87
2024/04/04 10:27:04;;;;;;;0.80;0.30;;;;;;;-144.05;80.79;56965.66;5031315;28;20029;-87
2024/04/04 10:29:34;;;;;;;2.17;0.45;;;13.90;99.90;;;-144.05;79.86;56965.66;5030059;28;20026;-87
2024/04/04 10:32:01;;;;;;;1.35;0.60;;;;;;;-144.05;78.29;56961.41;5038114;28;20111;-85
2024/04/04 10:34:30;;;;;;;1.40;0.43;;;;;;;-144.05;80.36;56942.28;5036396;28;20044;-87
2024/04/04 10:36:56;;;;;;;2.05;0.40;;;;;;;-144.05;80.17;56963.53;5025419;28;20387;-86
2024/04/04 10:39:25;;;;;;;2.70;0.60;;;;;;;-144.05;81.54;56984.78;5017472;28;20451;-87
2024/04/04 10:42:00;;;;;;;1.58;0.57;;;;;;;-144.05;81.89;56965.66;5036738;28;20026;-86
2024/04/04 10:44:27;;;;;;;1.65;0.50;;;;;;;-144.05;81.96;56989.00;5028457;28;20025;-87
2024/04/04 10:46:56;;;;;;;1.67;0.50;;;13.30;99.90;;;-144.05;80.38;56980.53;5032583;28;20041;-87
2024/04/04 10:49:29;;;;;;;4.82;1.08;;;;;;;-144.05;81.39;56957.16;5017921;28;20038;-88
2024/04/04 10:52:11;;;;;;;3.25;0.55;;;;;;;-144.05;80.87;56967.78;5022703;28;20034;-88
2024/04/04 10:54:38;;;;;;;1.30;0.60;;;;;;;-144.05;80.94;56948.66;5017297;28;20065;-87